Time;durP1;ratioP1;P1;durP2;ratioP2;P2;SDS_P1;SDS_P2;PMS_P1;PMS_P2;Temp;Humidity;BMP_temperature;BMP_pressure;BME280_temperature;BME280_humidity;BME280_pressure;Samples;Min_cycle;Max_cycle;Signal;HPM_P1;HPM_P2
2022/01/21 00:01:16;;;;;;;5.60;1.67;;;5.40;99.90;;;;;;5052037;28;20057;-81
2022/01/21 00:03:47;;;;;;;2.63;0.95;;;5.50;99.90;;;;;;5052581;28;20111;-82
2022/01/21 00:06:48;;;;;;;1.95;1.55;;;5.20;99.90;;;;;;5055440;28;20044;-82
2022/01/21 00:09:16;;;;;;;1.02;0.90;;;3.80;99.90;;;;;;5075249;28;20049;-82
2022/01/21 00:11:57;;;;;;;5.43;1.60;;;5.10;99.90;;;;;;5070923;28;20518;-82
2022/01/21 00:14:48;;;;;;;0.60;0.60;;;5.80;99.90;;;;;;5065671;28;20091;-81
2022/01/21 00:17:33;;;;;;;2.65;2.08;;;5.30;99.90;;;;;;5067412;28;20124;-83
2022/01/21 00:32:01;;;;;;;5.72;2.05;;;5.00;99.90;;;;;;5069625;28;20454;-81
2022/01/21 00:34:42;;;;;;;5.85;1.38;;;4.40;99.90;;;;;;5068544;28;20574;-83
2022/01/21 00:40:26;;;;;;;;;;;5.30;99.90;;;;;;5064153;28;20135;-83
2022/01/21 00:43:23;;;;;;;1.08;1.02;;;5.10;99.90;;;;;;5071525;28;20547;-83
2022/01/21 00:46:45;;;;;;;2.08;1.65;;;5.70;99.90;;;;;;5073048;28;20771;-84
2022/01/21 00:49:34;;;;;;;3.53;2.40;;;5.80;99.90;;;;;;5077036;28;20127;-83
2022/01/21 00:52:27;;;;;;;6.68;1.73;;;5.00;99.90;;;;;;5062501;28;20043;-83
2022/01/21 00:55:24;;;;;;;6.40;2.28;;;4.80;99.90;;;;;;5067780;28;20063;-83
2022/01/21 00:58:09;;;;;;;1.83;1.45;;;5.10;99.90;;;;;;5071758;28;20045;-83
2022/01/21 01:01:02;;;;;;;5.72;1.95;;;5.00;99.90;;;;;;5066322;28;20045;-81
2022/01/21 01:03:40;;;;;;;3.95;0.80;;;5.60;99.90;;;;;;5073946;28;20082;-82
2022/01/21 01:06:53;;;;;;;3.97;1.88;;;5.40;99.90;;;;;;5065356;28;20068;-81
2022/01/21 01:09:44;;;;;;;1.42;1.05;;;4.80;99.90;;;;;;5072299;28;20135;-82
2022/01/21 01:21:23;;;;;;;2.03;1.50;;;5.10;99.90;;;;;;5081722;28;20135;-83
2022/01/21 01:29:33;;;;;;;4.47;2.72;;;5.00;99.90;;;;;;5074789;28;20033;-82
2022/01/21 01:32:07;;;;;;;2.03;1.38;;;5.00;99.90;;;;;;5074019;28;20071;-83
2022/01/21 01:34:40;;;;;;;4.18;1.90;;;5.00;99.90;;;;;;5076541;28;20589;-83
2022/01/21 01:37:19;;;;;;;3.72;1.80;;;5.10;99.90;;;;;;5078440;28;20047;-83
2022/01/21 01:40:01;;;;;;;1.00;0.93;;;4.90;99.90;;;;;;5076386;28;20102;-83
2022/01/21 01:43:21;;;;;;;5.63;1.50;;;5.00;99.90;;;;;;5072656;28;20964;-83
2022/01/21 01:51:12;;;;;;;4.90;2.08;;;5.00;99.90;;;;;;5073631;28;20119;-82
2022/01/21 01:54:10;;;;;;;2.38;0.90;;;4.90;99.90;;;;;;5070900;28;20083;-81
2022/01/21 01:56:48;;;;;;;5.72;1.90;;;4.90;99.90;;;;;;5064867;28;20049;-76
2022/01/21 01:59:14;;;;;;;5.63;1.48;;;4.90;99.90;;;;;;5068159;28;20067;-77
2022/01/21 02:01:40;;;;;;;5.32;1.38;;;4.90;99.90;;;;;;5066626;28;20656;-75
2022/01/21 02:04:06;;;;;;;4.78;2.00;;;4.90;99.90;;;;;;5078403;28;20045;-75
2022/01/21 02:06:32;;;;;;;3.85;1.50;;;4.90;99.90;;;;;;5067881;28;20045;-76
2022/01/21 02:08:59;;;;;;;3.83;2.28;;;4.90;99.90;;;;;;5072514;28;20032;-76
2022/01/21 02:11:25;;;;;;;3.65;2.03;;;4.90;99.90;;;;;;5068885;28;20106;-76
2022/01/21 02:13:57;;;;;;;2.35;1.58;;;4.90;99.90;;;;;;5069889;28;20047;-76
2022/01/21 02:21:39;;;;;;;8.55;1.75;;;4.90;99.90;;;;;;5070544;28;20052;-76
2022/01/21 02:24:23;;;;;;;7.07;1.83;;;4.90;99.90;;;;;;5073624;28;20048;-77
2022/01/21 02:26:51;;;;;;;4.47;2.50;;;4.90;99.90;;;;;;5066865;28;20079;-77
2022/01/21 02:29:32;;;;;;;6.60;2.33;;;5.30;99.90;;;;;;5074279;28;20041;-77
2022/01/21 02:32:00;;;;;;;1.40;0.93;;;5.40;99.90;;;;;;5067998;28;20041;-76
2022/01/21 02:34:27;;;;;;;5.22;1.90;;;5.10;99.90;;;;;;5066473;28;20764;-76
2022/01/21 02:36:53;;;;;;;4.40;1.08;;;4.80;99.90;;;;;;5071726;28;20036;-76
2022/01/21 02:39:19;;;;;;;6.47;1.20;;;4.90;99.90;;;;;;5072867;28;20549;-76
2022/01/21 02:41:44;;;;;;;6.47;2.10;;;4.90;99.90;;;;;;5068000;28;20048;-77
2022/01/21 02:44:15;;;;;;;6.18;1.63;;;4.90;99.90;;;;;;5073436;28;20055;-76
2022/01/21 02:46:42;;;;;;;10.80;1.50;;;4.90;99.90;;;;;;5062904;28;20135;-76
2022/01/21 02:49:09;;;;;;;8.00;2.17;;;4.90;99.90;;;;;;5065856;28;20556;-76
2022/01/21 02:51:36;;;;;;;3.83;1.75;;;4.90;99.90;;;;;;5070450;28;20594;-77
2022/01/21 02:54:04;;;;;;;2.47;1.35;;;4.90;99.90;;;;;;5071897;28;20072;-75
2022/01/21 02:56:32;;;;;;;3.63;1.25;;;4.90;99.90;;;;;;5069294;28;20041;-76
2022/01/21 02:58:58;;;;;;;3.38;1.60;;;4.80;99.90;;;;;;5068817;28;20510;-76
2022/01/21 03:01:25;;;;;;;9.75;4.18;;;4.90;99.90;;;;;;5070666;28;20052;-76
2022/01/21 03:03:51;;;;;;;4.40;1.20;;;4.90;99.90;;;;;;5060950;28;20048;-76
2022/01/21 03:06:19;;;;;;;3.75;2.05;;;4.60;99.90;;;;;;5072132;28;20037;-76
2022/01/21 03:08:46;;;;;;;1.85;0.85;;;4.90;99.90;;;;;;5088399;27;20095;-76
2022/01/21 03:11:12;;;;;;;4.45;1.48;;;4.90;99.90;;;;;;5069289;28;20053;-76
2022/01/21 03:13:40;;;;;;;4.35;1.30;;;4.80;99.90;;;;;;5068023;28;21388;-76
2022/01/21 03:16:06;;;;;;;6.53;1.20;;;5.30;99.90;;;;;;5068963;28;20175;-76
2022/01/21 03:18:32;;;;;;;6.28;2.03;;;4.60;99.90;;;;;;5065202;28;20082;-76
2022/01/21 03:20:57;;;;;;;7.28;2.28;;;4.60;99.90;;;;;;5072569;28;20620;-76
2022/01/21 03:23:25;;;;;;;4.65;1.90;;;4.60;99.90;;;;;;5070685;28;20545;-76
2022/01/21 03:25:50;;;;;;;12.93;1.90;;;4.50;99.90;;;;;;5074332;28;20066;-76
2022/01/21 03:28:17;;;;;;;8.80;1.55;;;4.40;99.90;;;;;;5071481;28;20514;-76
2022/01/21 03:30:43;;;;;;;3.67;1.25;;;4.50;99.90;;;;;;5078525;28;20064;-76
2022/01/21 03:33:09;;;;;;;1.92;1.60;;;4.40;99.90;;;;;;5063830;28;20125;-76
2022/01/21 03:35:35;;;;;;;3.45;1.75;;;4.40;99.90;;;;;;5066757;28;20037;-76
2022/01/21 03:38:00;;;;;;;6.72;1.83;;;4.40;99.90;;;;;;5060742;28;20102;-76
2022/01/21 03:40:26;;;;;;;8.45;1.85;;;4.50;99.90;;;;;;5071178;28;20052;-76
2022/01/21 03:42:52;;;;;;;9.63;1.80;;;4.30;99.90;;;;;;5069872;28;20462;-76
2022/01/21 03:45:18;;;;;;;2.85;1.88;;;4.60;99.90;;;;;;5068644;28;20052;-76
2022/01/21 03:47:44;;;;;;;8.73;1.88;;;4.30;99.90;;;;;;5071097;28;20151;-76
2022/01/21 03:52:45;;;;;;;4.38;1.73;;;4.30;99.90;;;;;;5071342;28;20041;-76
2022/01/21 03:55:11;;;;;;;3.25;2.40;;;4.20;99.90;;;;;;5070736;28;20045;-76
2022/01/21 03:57:37;;;;;;;3.13;1.88;;;4.20;99.90;;;;;;5072901;28;20040;-76
2022/01/21 04:00:15;;;;;;;4.05;1.02;;;4.20;99.90;;;;;;5068902;28;20052;-75
2022/01/21 04:02:41;;;;;;;6.70;2.00;;;4.20;99.90;;;;;;5064901;28;20539;-76
2022/01/21 04:05:07;;;;;;;6.70;1.73;;;4.10;99.90;;;;;;5069594;28;21492;-76
2022/01/21 04:07:33;;;;;;;3.17;1.70;;;4.20;99.90;;;;;;5075321;28;20058;-76
2022/01/21 04:09:58;;;;;;;6.45;2.05;;;4.10;99.90;;;;;;5070960;28;20048;-76
2022/01/21 04:12:24;;;;;;;4.93;2.10;;;4.20;99.90;;;;;;5070920;28;20045;-76
2022/01/21 04:14:50;;;;;;;2.42;1.38;;;4.20;99.90;;;;;;5066363;28;20063;-76
2022/01/21 04:17:18;;;;;;;4.75;2.65;;;4.50;99.90;;;;;;5069664;28;20051;-76
2022/01/21 04:19:44;;;;;;;4.13;1.90;;;4.20;99.90;;;;;;5068477;28;20319;-76
2022/01/21 04:22:09;;;;;;;5.38;2.13;;;4.20;99.90;;;;;;5073950;28;20205;-76
2022/01/21 04:24:37;;;;;;;2.92;1.77;;;4.20;99.90;;;;;;5072244;28;20040;-76
2022/01/21 04:27:03;;;;;;;3.45;1.27;;;4.20;99.90;;;;;;5074358;28;20577;-76
2022/01/21 04:29:28;;;;;;;3.25;1.38;;;4.10;99.90;;;;;;5075555;28;20052;-76
2022/01/21 04:31:54;;;;;;;5.07;1.45;;;4.10;99.90;;;;;;5068265;28;20064;-76
2022/01/21 04:34:20;;;;;;;4.13;1.27;;;4.10;99.90;;;;;;5067266;28;20044;-76
2022/01/21 04:36:45;;;;;;;6.60;1.38;;;4.40;99.90;;;;;;5073805;28;20478;-75
2022/01/21 04:39:18;;;;;;;7.88;2.08;;;4.20;99.90;;;;;;5073144;28;20111;-76
2022/01/21 04:49:38;;;;;;;8.07;2.15;;;4.10;99.90;;;;;;5074731;28;20887;-76
2022/01/21 04:52:04;;;;;;;2.45;1.38;;;4.00;99.90;;;;;;5065119;28;20051;-76
2022/01/21 04:54:31;;;;;;;2.45;1.80;;;4.00;99.90;;;;;;5068998;28;20056;-76
2022/01/21 04:56:57;;;;;;;5.47;1.38;;;4.50;99.90;;;;;;5071278;28;20129;-76
2022/01/21 04:59:23;;;;;;;8.68;1.35;;;4.00;99.90;;;;;;5072651;28;20121;-76
2022/01/21 05:01:49;;;;;;;10.50;3.58;;;3.90;99.90;;;;;;5073376;28;20477;-77
2022/01/21 05:04:14;;;;;;;5.72;2.90;;;4.00;99.90;;;;;;5074469;28;20041;-76
2022/01/21 05:06:41;;;;;;;9.70;4.32;;;3.70;99.90;;;;;;5072825;28;20898;-76
2022/01/21 05:09:07;;;;;;;17.08;6.95;;;3.90;99.90;;;;;;5074725;28;20045;-76
2022/01/21 05:11:36;;;;;;;20.05;6.93;;;4.00;99.90;;;;;;5068521;28;20813;-76
2022/01/21 05:14:16;;;;;;;30.00;9.63;;;4.00;99.90;;;;;;5067606;28;20032;-76
2022/01/21 05:16:50;;;;;;;22.80;7.65;;;4.10;99.90;;;;;;5071710;28;20051;-76
2022/01/21 05:19:18;;;;;;;17.00;6.95;;;4.20;99.90;;;;;;5068579;28;20049;-76
2022/01/21 05:21:46;;;;;;;16.83;7.55;;;4.20;99.90;;;;;;5069499;28;20037;-76
2022/01/21 05:24:12;;;;;;;12.18;3.85;;;4.20;99.90;;;;;;5070623;28;20195;-76
2022/01/21 05:26:40;;;;;;;12.40;5.32;;;4.20;99.90;;;;;;5067455;28;20052;-76
2022/01/21 05:29:08;;;;;;;7.18;3.60;;;3.90;99.90;;;;;;5073118;28;20943;-76
2022/01/21 05:31:35;;;;;;;7.53;4.70;;;4.20;99.90;;;;;;5067404;28;20044;-76
2022/01/21 05:34:01;;;;;;;15.15;6.75;;;3.90;99.90;;;;;;5073674;28;20108;-75
2022/01/21 05:36:27;;;;;;;4.43;2.85;;;4.30;99.90;;;;;;5068591;28;20056;-76
2022/01/21 05:38:56;;;;;;;4.57;3.33;;;4.30;99.90;;;;;;5074438;28;20047;-76
2022/01/21 05:41:25;;;;;;;8.25;2.75;;;4.30;99.90;;;;;;5072945;28;20045;-76
2022/01/21 05:44:00;;;;;;;4.60;2.47;;;4.20;99.90;;;;;;5069393;28;20090;-76
2022/01/21 05:46:42;;;;;;;5.47;2.25;;;5.00;99.90;;;;;;5066735;28;20182;-76
2022/01/21 05:49:07;;;;;;;11.07;2.13;;;4.30;99.90;;;;;;5071865;28;20045;-76
2022/01/21 05:51:33;;;;;;;5.65;2.40;;;4.30;99.90;;;;;;5069129;28;20048;-76
2022/01/21 05:53:59;;;;;;;3.33;2.50;;;4.30;99.90;;;;;;5069871;28;20041;-76
2022/01/21 05:56:26;;;;;;;5.63;2.08;;;4.40;99.90;;;;;;5074468;28;20473;-76
2022/01/21 05:58:52;;;;;;;7.07;2.45;;;4.40;99.90;;;;;;5065904;28;20033;-76
2022/01/21 06:01:18;;;;;;;4.05;1.35;;;4.80;99.90;;;;;;5072214;28;20653;-76
2022/01/21 06:03:44;;;;;;;5.72;2.58;;;4.30;99.90;;;;;;5071988;28;20037;-76
2022/01/21 06:06:10;;;;;;;3.45;0.90;;;4.40;99.90;;;;;;5071490;28;20084;-76
2022/01/21 06:08:39;;;;;;;5.28;1.98;;;4.00;99.90;;;;;;5065439;28;20082;-76
2022/01/21 06:11:06;;;;;;;10.85;1.85;;;4.10;99.90;;;;;;5071195;28;20041;-76
2022/01/21 06:13:32;;;;;;;3.03;1.52;;;4.30;99.90;;;;;;5072849;28;20045;-76
2022/01/21 06:15:59;;;;;;;4.88;1.33;;;4.30;99.90;;;;;;5067640;28;20041;-76
2022/01/21 06:18:25;;;;;;;6.05;2.00;;;4.30;99.90;;;;;;5065149;28;20051;-76
2022/01/21 06:20:51;;;;;;;6.82;2.55;;;4.30;99.90;;;;;;5068970;28;20088;-76
2022/01/21 06:23:17;;;;;;;7.93;2.13;;;4.30;99.90;;;;;;5068471;28;20037;-76
2022/01/21 06:25:46;;;;;;;5.10;1.83;;;4.20;99.90;;;;;;5066902;28;20052;-79
2022/01/21 06:28:12;;;;;;;18.15;2.13;;;4.30;99.90;;;;;;5068096;28;20055;-76
2022/01/21 06:30:38;;;;;;;9.27;1.85;;;4.20;99.90;;;;;;5072250;28;20063;-76
2022/01/21 06:33:04;;;;;;;2.72;1.65;;;4.20;99.90;;;;;;5075574;28;20500;-76
2022/01/21 06:35:30;;;;;;;1.10;0.82;;;4.20;99.90;;;;;;5072056;28;20075;-77
2022/01/21 06:37:56;;;;;;;1.35;0.80;;;4.30;99.90;;;;;;5067890;28;20790;-77
2022/01/21 06:40:21;;;;;;;6.35;2.20;;;4.40;99.90;;;;;;5073348;28;20576;-76
2022/01/21 06:42:52;;;;;;;2.25;1.80;;;4.20;99.90;;;;;;5074327;28;20050;-79
2022/01/21 06:45:20;;;;;;;3.13;1.65;;;4.20;99.90;;;;;;5076427;28;20041;-77
2022/01/21 06:47:46;;;;;;;3.45;1.80;;;4.20;99.90;;;;;;5076653;28;20479;-77
2022/01/21 06:50:25;;;;;;;2.72;1.58;;;4.20;99.90;;;;;;5073043;28;20127;-77
2022/01/21 06:52:57;;;;;;;6.15;1.33;;;4.10;99.90;;;;;;5068417;28;20049;-77
2022/01/21 06:58:26;;;;;;;10.33;2.27;;;4.50;99.90;;;;;;5068949;28;20052;-77
2022/01/21 07:01:07;;;;;;;1.60;1.40;;;4.10;99.90;;;;;;5085995;27;20037;-77
2022/01/21 07:03:47;;;;;;;11.25;2.17;;;4.40;99.90;;;;;;5076701;28;20041;-77
2022/01/21 07:06:39;;;;;;;7.95;2.00;;;4.30;99.90;;;;;;5076650;28;20032;-77
2022/01/21 07:09:19;;;;;;;13.23;2.35;;;4.10;99.90;;;;;;5074346;28;20135;-77
2022/01/21 07:12:09;;;;;;;7.32;1.95;;;4.00;99.90;;;;;;5072149;28;20071;-76
2022/01/21 07:14:35;;;;;;;12.18;3.85;;;4.10;99.90;;;;;;5077401;28;20131;-75
2022/01/21 07:17:05;;;;;;;2.65;1.55;;;4.30;99.90;;;;;;5070011;28;20033;-75
2022/01/21 07:19:47;;;;;;;9.60;4.07;;;4.00;99.90;;;;;;5070712;28;20600;-75
2022/01/21 07:22:24;;;;;;;10.35;3.13;;;4.30;99.90;;;;;;5066041;28;20080;-75
2022/01/21 07:24:50;;;;;;;5.75;2.95;;;4.40;99.90;;;;;;5066706;28;20052;-74
2022/01/21 07:27:17;;;;;;;4.50;2.50;;;4.10;99.90;;;;;;5074977;28;20092;-74
2022/01/21 07:29:43;;;;;;;7.38;3.33;;;4.20;99.90;;;;;;5073875;27;20124;-74
2022/01/21 07:32:09;;;;;;;8.02;3.92;;;3.80;99.90;;;;;;5077201;28;20048;-75
2022/01/21 07:34:36;;;;;;;13.80;3.83;;;3.80;99.90;;;;;;5075841;28;20044;-74
2022/01/21 07:37:02;;;;;;;13.75;3.20;;;3.80;99.90;;;;;;5072255;28;20040;-74
2022/01/21 07:39:29;;;;;;;7.75;3.50;;;3.80;99.90;;;;;;5069074;28;20950;-74
2022/01/21 07:41:54;;;;;;;18.80;6.07;;;3.80;99.90;;;;;;5071292;28;20045;-74
2022/01/21 07:44:21;;;;;;;17.30;5.93;;;3.80;99.90;;;;;;5073986;28;20032;-74
2022/01/21 07:46:47;;;;;;;8.88;4.65;;;3.80;99.90;;;;;;5072094;28;20037;-74
2022/01/21 07:49:14;;;;;;;12.73;5.72;;;3.80;99.90;;;;;;5072631;28;20071;-75
2022/01/21 07:51:40;;;;;;;6.70;3.58;;;3.90;99.90;;;;;;5073883;28;20056;-74
2022/01/21 07:54:10;;;;;;;9.25;3.70;;;3.90;99.90;;;;;;5074051;28;20028;-74
2022/01/21 07:56:39;;;;;;;9.38;3.47;;;4.40;99.90;;;;;;5069752;28;20471;-74
2022/01/21 07:59:08;;;;;;;4.40;2.53;;;3.80;99.90;;;;;;5068488;28;20060;-74
2022/01/21 08:01:34;;;;;;;6.03;2.80;;;3.90;99.90;;;;;;5077629;28;20111;-75
2022/01/21 08:04:01;;;;;;;5.15;3.17;;;4.10;99.90;;;;;;5069987;28;20067;-74
2022/01/21 08:06:26;;;;;;;13.85;3.28;;;3.80;99.90;;;;;;5077386;28;20889;-74
2022/01/21 08:08:55;;;;;;;6.85;2.88;;;4.20;99.90;;;;;;5070474;28;20072;-74
2022/01/21 08:11:21;;;;;;;5.05;2.67;;;4.30;99.90;;;;;;5066930;28;20040;-74
2022/01/21 08:13:47;;;;;;;6.53;2.70;;;3.80;99.90;;;;;;5071224;28;20032;-76
2022/01/21 08:16:16;;;;;;;5.95;2.60;;;3.80;99.90;;;;;;5081091;27;20975;-75
2022/01/21 08:18:42;;;;;;;19.08;3.00;;;3.80;99.90;;;;;;5069169;28;20045;-75
2022/01/21 08:21:11;;;;;;;9.50;3.55;;;3.70;99.90;;;;;;5071455;28;20048;-77
2022/01/21 08:23:39;;;;;;;8.35;2.65;;;3.70;99.90;;;;;;5089831;27;20130;-75
2022/01/21 08:26:05;;;;;;;3.22;1.98;;;3.70;99.90;;;;;;5069442;28;20095;-75
2022/01/21 08:28:31;;;;;;;4.28;2.45;;;3.80;99.90;;;;;;5071338;28;20057;-76
2022/01/21 08:30:57;;;;;;;7.78;2.10;;;3.80;99.90;;;;;;5073734;28;20072;-76
2022/01/21 08:33:32;;;;;;;2.60;1.85;;;3.30;99.90;;;;;;5072021;28;20068;-76
2022/01/21 08:35:58;;;;;;;6.25;2.05;;;3.90;99.90;;;;;;5070969;28;20616;-76
2022/01/21 08:38:24;;;;;;;0.57;0.57;;;4.00;99.90;;;;;;5073456;28;20045;-76
2022/01/21 08:40:52;;;;;;;5.80;1.88;;;4.00;99.90;;;;;;5070398;28;20865;-75
2022/01/21 08:43:17;;;;;;;4.20;2.15;;;3.90;99.90;;;;;;5070588;28;20041;-76
2022/01/21 08:45:43;;;;;;;8.63;2.22;;;4.60;99.90;;;;;;5068806;28;20037;-76
2022/01/21 08:48:10;;;;;;;6.72;2.50;;;4.00;99.90;;;;;;5071515;28;20514;-76
2022/01/21 08:50:36;;;;;;;4.65;2.50;;;4.20;99.90;;;;;;5072315;28;20049;-75
2022/01/21 08:53:35;;;;;;;4.13;2.00;;;4.30;99.90;;;;;;5066584;28;20045;-75
2022/01/21 08:55:54;;;;;;;7.13;2.72;;;4.30;99.90;;;;;;5069669;28;20041;-75
2022/01/21 08:58:20;;;;;;;5.72;2.05;;;4.50;99.90;;;;;;5067186;28;20129;-75
2022/01/21 09:00:48;;;;;;;6.25;2.45;;;4.90;99.90;;;;;;5070237;28;20044;-74
2022/01/21 09:03:14;;;;;;;5.90;2.72;;;4.50;99.90;;;;;;5071043;28;20036;-75
2022/01/21 09:05:40;;;;;;;5.35;2.33;;;4.70;99.90;;;;;;5068604;28;20849;-75
2022/01/21 09:08:06;;;;;;;4.32;2.20;;;4.80;99.90;;;;;;5073616;28;20033;-75
2022/01/21 09:10:32;;;;;;;4.93;2.28;;;4.70;99.90;;;;;;5069698;28;20464;-75
2022/01/21 09:12:58;;;;;;;11.57;2.55;;;4.50;99.90;;;;;;5066794;28;20040;-76
2022/01/21 09:15:25;;;;;;;6.70;2.53;;;4.60;99.90;;;;;;5071173;28;20104;-75
2022/01/21 09:18:02;;;;;;;3.85;2.22;;;4.60;99.90;;;;;;5064986;28;20044;-75
2022/01/21 09:20:27;;;;;;;5.43;2.22;;;4.70;99.90;;;;;;5066759;28;20946;-75
2022/01/21 09:22:53;;;;;;;6.97;2.28;;;4.80;99.90;;;;;;5062926;28;20047;-76
2022/01/21 09:25:19;;;;;;;4.82;2.58;;;5.20;99.90;;;;;;5071833;28;20100;-75
2022/01/21 09:27:45;;;;;;;6.38;2.58;;;5.50;99.90;;;;;;5066399;28;20060;-76
2022/01/21 09:30:11;;;;;;;4.47;2.20;;;4.80;99.90;;;;;;5063844;28;20041;-75
2022/01/21 09:32:37;;;;;;;2.90;1.60;;;4.90;99.90;;;;;;5069852;28;20044;-75
2022/01/21 09:35:04;;;;;;;12.85;2.95;;;4.90;99.90;;;;;;5067005;28;20516;-76
2022/01/21 09:37:30;;;;;;;4.05;1.90;;;4.90;99.90;;;;;;5070871;28;20052;-75
2022/01/21 09:39:56;;;;;;;13.35;3.00;;;5.00;99.90;;;;;;5067474;28;20063;-75
2022/01/21 09:42:22;;;;;;;2.65;1.52;;;5.00;99.90;;;;;;5071672;28;20107;-76
2022/01/21 09:44:49;;;;;;;14.50;3.00;;;6.20;99.90;;;;;;5068715;28;20109;-74
2022/01/21 09:47:18;;;;;;;4.45;2.17;;;5.10;99.90;;;;;;5066037;28;20072;-75
2022/01/21 09:49:45;;;;;;;6.10;2.45;;;6.20;99.90;;;;;;5067150;28;20097;-75
2022/01/21 09:52:17;;;;;;;24.45;1.90;;;5.10;99.90;;;;;;5068009;28;20041;-76
2022/01/21 09:54:47;;;;;;;6.65;2.65;;;5.20;99.90;;;;;;5068722;28;20045;-75
2022/01/21 09:57:21;;;;;;;2.55;1.70;;;5.10;99.90;;;;;;5069053;28;20080;-75
2022/01/21 09:59:50;;;;;;;3.90;1.67;;;5.30;99.90;;;;;;5064080;28;20044;-75
2022/01/21 10:02:19;;;;;;;9.02;3.42;;;5.80;99.90;;;;;;5065623;28;20044;-76
2022/01/21 10:04:49;;;;;;;12.82;2.75;;;6.30;99.90;;;;;;5065074;28;20040;-76
2022/01/21 10:07:18;;;;;;;4.82;2.55;;;6.10;99.90;;;;;;5069566;28;20040;-76
2022/01/21 10:09:46;;;;;;;8.13;1.92;;;5.50;99.90;;;;;;5067316;28;20146;-76
2022/01/21 10:12:13;;;;;;;8.52;2.92;;;5.70;99.90;;;;;;5071087;28;20066;-76
2022/01/21 10:14:41;;;;;;;6.13;1.67;;;5.60;99.90;;;;;;5067808;28;20930;-76
2022/01/21 10:17:08;;;;;;;2.03;1.83;;;5.60;99.90;;;;;;5073333;28;20106;-77
2022/01/21 10:19:36;;;;;;;5.88;2.65;;;5.40;99.90;;;;;;5068038;28;20102;-76
2022/01/21 10:22:12;;;;;;;8.40;2.42;;;5.60;99.90;;;;;;5069144;28;20049;-76
2022/01/21 10:24:54;;;;;;;5.63;1.55;;;5.50;99.90;;;;;;5069722;28;20032;-76
2022/01/21 10:27:47;;;;;;;8.40;2.42;;;6.10;99.90;;;;;;5067796;28;20079;-77
2022/01/21 10:30:24;;;;;;;8.98;1.63;;;5.80;99.90;;;;;;5069690;28;20545;-76
2022/01/21 10:32:50;;;;;;;8.15;1.88;;;5.80;99.90;;;;;;5067211;28;20047;-76
2022/01/21 10:35:22;;;;;;;8.93;3.08;;;5.80;99.90;;;;;;5073707;28;20041;-76
2022/01/21 10:37:48;;;;;;;3.58;1.25;;;6.00;99.90;;;;;;5069281;28;20882;-77
2022/01/21 10:40:21;;;;;;;7.50;2.60;;;5.90;99.90;;;;;;5063277;28;20045;-76
2022/01/21 10:42:49;;;;;;;5.47;2.72;;;5.90;99.90;;;;;;5063022;28;20033;-76
2022/01/21 10:45:19;;;;;;;4.25;1.80;;;5.30;99.90;;;;;;5064773;28;20048;-76
2022/01/21 10:47:50;;;;;;;5.25;2.40;;;6.10;99.90;;;;;;5066997;28;20135;-77
2022/01/21 10:50:25;;;;;;;4.03;1.95;;;6.00;99.90;;;;;;5072575;28;20580;-76
2022/01/21 10:52:53;;;;;;;4.55;1.77;;;6.00;99.90;;;;;;5066565;28;20860;-75
2022/01/21 10:55:32;;;;;;;7.18;2.17;;;6.10;99.90;;;;;;5062006;28;21490;-75
2022/01/21 10:58:11;;;;;;;4.30;3.35;;;6.30;99.90;;;;;;5064012;28;20083;-76
2022/01/21 11:00:40;;;;;;;13.48;2.72;;;6.10;99.90;;;;;;5068113;28;20483;-76
2022/01/21 11:03:12;;;;;;;3.60;1.85;;;6.10;99.90;;;;;;5068820;28;20123;-78
2022/01/21 11:05:42;;;;;;;2.40;1.67;;;6.20;99.90;;;;;;5076164;28;20140;-79
2022/01/21 11:08:10;;;;;;;3.70;2.15;;;6.20;99.90;;;;;;5068235;28;20057;-79
2022/01/21 11:10:46;;;;;;;7.53;2.63;;;6.30;99.90;;;;;;5071891;28;20041;-79
2022/01/21 11:13:20;;;;;;;6.57;1.70;;;6.30;99.90;;;;;;5071464;28;20102;-79
2022/01/21 11:15:58;;;;;;;3.38;2.35;;;6.40;99.90;;;;;;5073089;28;20041;-79
2022/01/21 11:18:34;;;;;;;4.05;1.98;;;6.40;99.90;;;;;;5070206;28;20122;-79
2022/01/21 11:21:11;;;;;;;8.25;2.17;;;6.30;99.90;;;;;;5072267;28;20578;-79
2022/01/21 11:23:38;;;;;;;3.15;1.63;;;6.40;99.90;;;;;;5066854;28;20040;-79
2022/01/21 11:26:09;;;;;;;5.55;2.17;;;6.40;99.90;;;;;;5062507;28;20327;-78
2022/01/21 11:28:53;;;;;;;9.38;1.60;;;6.50;99.90;;;;;;5069858;28;20040;-79
2022/01/21 11:31:29;;;;;;;4.72;1.98;;;6.50;99.90;;;;;;5072029;28;20045;-79
2022/01/21 11:34:02;;;;;;;4.35;1.48;;;7.00;99.90;;;;;;5068141;28;20051;-79
2022/01/21 11:36:31;;;;;;;6.43;2.15;;;6.60;99.90;;;;;;5067778;28;20087;-79
2022/01/21 11:39:04;;;;;;;6.32;1.58;;;6.60;99.90;;;;;;5067776;28;20047;-79
2022/01/21 11:41:31;;;;;;;6.45;1.98;;;6.70;99.90;;;;;;5075108;28;20040;-79
2022/01/21 11:44:01;;;;;;;9.85;2.60;;;6.60;99.90;;;;;;5074237;28;20045;-79
2022/01/21 11:49:20;;;;;;;6.72;2.45;;;6.70;99.90;;;;;;5071344;28;20045;-83
2022/01/21 11:51:47;;;;;;;2.15;1.50;;;6.80;99.90;;;;;;5066912;28;20077;-79
2022/01/21 11:54:23;;;;;;;2.85;1.70;;;6.90;99.90;;;;;;5067713;28;20036;-79
2022/01/21 11:56:57;;;;;;;4.60;1.70;;;7.00;99.90;;;;;;5067337;28;20169;-80
2022/01/21 11:59:35;;;;;;;7.80;2.22;;;7.00;99.90;;;;;;5071390;28;20554;-79
2022/01/21 12:02:23;;;;;;;4.15;1.90;;;7.00;99.90;;;;;;5065563;28;20514;-79
2022/01/21 12:05:05;;;;;;;5.35;1.33;;;7.00;99.90;;;;;;5069871;28;20063;-77
2022/01/21 12:07:41;;;;;;;9.75;2.35;;;7.10;99.90;;;;;;5068970;28;20044;-77
2022/01/21 12:10:10;;;;;;;7.45;1.77;;;7.00;99.90;;;;;;5067584;28;20123;-77
2022/01/21 12:12:49;;;;;;;9.55;1.92;;;7.10;99.90;;;;;;5069028;28;20036;-77
2022/01/21 12:15:34;;;;;;;5.47;2.13;;;7.10;99.90;;;;;;5072399;28;20045;-77
2022/01/21 12:20:58;;;;;;;3.10;0.77;;;7.00;99.90;;;;;;5066829;28;20152;-76
2022/01/21 12:23:26;;;;;;;6.20;2.80;;;7.00;99.90;;;;;;5068171;28;20310;-77
2022/01/21 12:26:14;;;;;;;4.93;1.80;;;7.00;99.90;;;;;;5070448;28;20974;-77
2022/01/21 12:28:42;;;;;;;2.95;1.30;;;7.10;99.90;;;;;;5070555;28;20072;-77
2022/01/21 12:31:16;;;;;;;6.57;1.77;;;7.00;99.90;;;;;;5071101;28;20044;-77
2022/01/21 12:34:11;;;;;;;2.67;1.50;;;7.30;99.90;;;;;;5072282;28;20041;-77
2022/01/21 12:36:43;;;;;;;6.65;2.15;;;8.00;99.90;;;;;;5069678;28;20040;-77
2022/01/21 12:39:43;;;;;;;1.92;1.60;;;6.90;99.90;;;;;;5061856;28;20040;-76
2022/01/21 12:42:32;;;;;;;4.60;1.95;;;7.00;99.90;;;;;;5070474;28;20053;-78
2022/01/21 12:45:17;;;;;;;8.75;3.33;;;7.00;99.90;;;;;;5069883;28;20987;-77
2022/01/21 12:47:48;;;;;;;7.72;1.83;;;7.10;99.90;;;;;;5075047;28;20144;-77
2022/01/21 12:50:31;;;;;;;8.05;1.65;;;7.10;99.90;;;;;;5069667;28;20045;-77
2022/01/21 12:58:26;;;;;;;5.68;2.15;;;7.10;99.90;;;;;;5067446;28;20897;-76
2022/01/21 13:01:00;;;;;;;8.32;2.13;;;7.00;99.90;;;;;;5065802;28;20052;-77
2022/01/21 13:03:46;;;;;;;9.32;2.17;;;6.90;99.90;;;;;;5066775;28;20585;-74
2022/01/21 13:06:29;;;;;;;6.68;2.08;;;6.70;99.90;;;;;;5064786;28;20048;-75
2022/01/21 13:09:10;;;;;;;8.07;2.25;;;7.00;99.90;;;;;;5071372;28;20557;-74
2022/01/21 13:11:42;;;;;;;4.55;1.88;;;7.20;99.90;;;;;;5070670;28;20049;-75
2022/01/21 13:17:00;;;;;;;3.05;1.20;;;7.10;99.90;;;;;;5063842;28;20151;-78
2022/01/21 13:19:31;;;;;;;6.15;2.33;;;7.10;99.90;;;;;;5069254;28;20584;-80
2022/01/21 13:21:57;;;;;;;2.28;1.80;;;7.10;99.90;;;;;;5067540;28;20029;-79
2022/01/21 13:24:31;;;;;;;2.63;1.27;;;7.00;99.90;;;;;;5072798;28;20450;-79
2022/01/21 13:26:58;;;;;;;6.40;1.58;;;6.80;99.90;;;;;;5084751;27;20044;-79
2022/01/21 13:29:37;;;;;;;5.38;2.05;;;6.80;99.90;;;;;;5074595;28;20167;-80
2022/01/21 13:32:05;;;;;;;9.63;2.80;;;6.70;99.90;;;;;;5071592;28;20523;-79
2022/01/21 13:34:36;;;;;;;3.72;1.65;;;6.80;99.90;;;;;;5070783;28;20519;-78
2022/01/21 13:37:07;;;;;;;4.55;2.30;;;6.80;99.90;;;;;;5069928;28;20151;-80
2022/01/21 13:39:37;;;;;;;6.97;1.98;;;6.80;99.90;;;;;;5063116;28;20045;-79
2022/01/21 13:42:13;;;;;;;5.03;2.47;;;7.00;99.90;;;;;;5066189;28;20041;-79
2022/01/21 13:44:44;;;;;;;2.95;1.88;;;7.10;99.90;;;;;;5068852;28;20140;-80
2022/01/21 13:47:35;;;;;;;10.73;2.25;;;7.20;99.90;;;;;;5066519;28;20047;-79
2022/01/21 13:50:13;;;;;;;4.23;2.90;;;7.30;99.90;;;;;;5059383;28;20041;-79
2022/01/21 13:52:48;;;;;;;7.68;1.88;;;8.50;99.90;;;;;;5067885;28;20287;-80
2022/01/21 13:55:39;;;;;;;2.67;1.60;;;7.20;99.90;;;;;;5062515;28;20412;-81
2022/01/21 13:58:12;;;;;;;8.93;1.70;;;7.30;99.90;;;;;;5069025;28;20045;-79
2022/01/21 14:00:45;;;;;;;5.32;1.88;;;7.20;99.90;;;;;;5073256;28;20260;-81
2022/01/21 14:03:22;;;;;;;9.30;2.20;;;7.10;99.90;;;;;;5062928;28;20056;-79
2022/01/21 14:06:11;;;;;;;2.90;1.40;;;7.10;99.90;;;;;;5073003;28;20037;-79
2022/01/21 14:08:45;;;;;;;7.78;2.30;;;7.00;99.90;;;;;;5083602;27;20045;-79
2022/01/21 14:11:15;;;;;;;4.28;2.85;;;6.90;99.90;;;;;;5067213;28;20094;-79
2022/01/21 14:13:59;;;;;;;5.93;1.83;;;7.00;99.90;;;;;;5069708;28;20040;-79
2022/01/21 14:16:25;;;;;;;5.93;1.75;;;7.20;99.90;;;;;;5069208;28;20040;-79
2022/01/21 14:18:55;;;;;;;8.23;2.20;;;7.20;99.90;;;;;;5072560;28;20036;-78
2022/01/21 14:21:29;;;;;;;2.33;1.75;;;7.20;99.90;;;;;;5070655;28;20114;-79
2022/01/21 14:24:09;;;;;;;8.25;2.17;;;7.00;99.90;;;;;;5067761;28;20043;-79
2022/01/21 14:26:41;;;;;;;3.78;1.80;;;7.10;99.90;;;;;;5069293;28;20060;-79